sensor_id;sensor_type;location;lat;lon;timestamp;pressure;altitude;pressure_sealevel;temperature;humidity
78309;BME280;75657;42.022;21.356;2024-02-15T00:02:14;99305.53;;;5.47;54.84
78309;BME280;75657;42.022;21.356;2024-02-15T00:04:39;99303.41;;;5.44;55.41
78309;BME280;75657;42.022;21.356;2024-02-15T00:07:05;99301.00;;;5.42;55.57
78309;BME280;75657;42.022;21.356;2024-02-15T00:09:31;99304.47;;;5.48;55.07
78309;BME280;75657;42.022;21.356;2024-02-15T00:11:56;99310.84;;;5.52;54.94
78309;BME280;75657;42.022;21.356;2024-02-15T00:14:22;99312.47;;;5.53;54.77
78309;BME280;75657;42.022;21.356;2024-02-15T00:16:48;99314.31;;;5.53;55.18
78309;BME280;75657;42.022;21.356;2024-02-15T00:19:13;99320.63;;;5.52;55.06
78309;BME280;75657;42.022;21.356;2024-02-15T00:21:45;99315.16;;;5.58;54.89
78309;BME280;75657;42.022;21.356;2024-02-15T00:24:11;99315.69;;;5.60;55.00
78309;BME280;75657;42.022;21.356;2024-02-15T00:26:37;99318.03;;;5.57;55.03
78309;BME280;75657;42.022;21.356;2024-02-15T00:29:03;99313.25;;;5.54;54.90
78309;BME280;75657;42.022;21.356;2024-02-15T00:31:29;99323.28;;;5.52;55.05
78309;BME280;75657;42.022;21.356;2024-02-15T00:33:54;99324.56;;;5.49;55.29
78309;BME280;75657;42.022;21.356;2024-02-15T00:36:20;99323.50;;;5.50;54.61
78309;BME280;75657;42.022;21.356;2024-02-15T00:38:45;99322.19;;;5.47;54.98
78309;BME280;75657;42.022;21.356;2024-02-15T00:41:11;99332.44;;;5.44;55.15
78309;BME280;75657;42.022;21.356;2024-02-15T00:43:36;99345.09;;;5.42;55.27
78309;BME280;75657;42.022;21.356;2024-02-15T00:46:02;99341.09;;;5.39;55.58
78309;BME280;75657;42.022;21.356;2024-02-15T00:48:28;99332.16;;;5.40;55.14
78309;BME280;75657;42.022;21.356;2024-02-15T00:50:56;99331.91;;;5.42;55.27
78309;BME280;75657;42.022;21.356;2024-02-15T00:53:23;99339.53;;;5.43;55.28
78309;BME280;75657;42.022;21.356;2024-02-15T00:55:48;99339.31;;;5.45;55.59
78309;BME280;75657;42.022;21.356;2024-02-15T00:58:14;99335.63;;;5.46;55.76
78309;BME280;75657;42.022;21.356;2024-02-15T01:00:39;99341.66;;;5.41;55.29
78309;BME280;75657;42.022;21.356;2024-02-15T01:03:05;99340.56;;;5.37;55.79
78309;BME280;75657;42.022;21.356;2024-02-15T01:05:30;99330.22;;;5.36;55.74
78309;BME280;75657;42.022;21.356;2024-02-15T01:07:56;99341.66;;;5.41;55.40
78309;BME280;75657;42.022;21.356;2024-02-15T01:10:22;99337.44;;;5.40;55.26
78309;BME280;75657;42.022;21.356;2024-02-15T01:12:49;99332.16;;;5.40;55.70
78309;BME280;75657;42.022;21.356;2024-02-15T01:15:15;99332.94;;;5.41;55.27
78309;BME280;75657;42.022;21.356;2024-02-15T01:17:45;99328.13;;;5.38;55.54
78309;BME280;75657;42.022;21.356;2024-02-15T01:20:11;99324.47;;;5.39;55.26
78309;BME280;75657;42.022;21.356;2024-02-15T01:22:37;99332.16;;;5.40;55.15
78309;BME280;75657;42.022;21.356;2024-02-15T01:25:03;99321.06;;;5.43;55.15
78309;BME280;75657;42.022;21.356;2024-02-15T01:27:28;99331.59;;;5.38;54.72
78309;BME280;75657;42.022;21.356;2024-02-15T01:29:56;99329.44;;;5.35;55.60
78309;BME280;75657;42.022;21.356;2024-02-15T01:32:21;99326.25;;;5.33;55.85
78309;BME280;75657;42.022;21.356;2024-02-15T01:34:47;99329.16;;;5.32;55.73
78309;BME280;75657;42.022;21.356;2024-02-15T01:37:13;99327.06;;;5.34;55.85
78309;BME280;75657;42.022;21.356;2024-02-15T01:39:38;99326.56;;;5.37;55.40
78309;BME280;75657;42.022;21.356;2024-02-15T01:42:04;99334.78;;;5.40;55.39
78309;BME280;75657;42.022;21.356;2024-02-15T01:44:29;99327.75;;;5.51;55.06
78309;BME280;75657;42.022;21.356;2024-02-15T01:46:55;99330.69;;;5.55;54.76
78309;BME280;75657;42.022;21.356;2024-02-15T01:49:24;99312.16;;;5.49;55.31
78309;BME280;75657;42.022;21.356;2024-02-15T01:51:53;99325.38;;;5.49;55.44
78309;BME280;75657;42.022;21.356;2024-02-15T01:54:22;99327.47;;;5.47;55.74
78309;BME280;75657;42.022;21.356;2024-02-15T01:56:48;99335.69;;;5.29;56.08
78309;BME280;75657;42.022;21.356;2024-02-15T01:59:15;99334.06;;;5.23;55.81
78309;BME280;75657;42.022;21.356;2024-02-15T02:01:41;99334.25;;;5.16;56.27
78309;BME280;75657;42.022;21.356;2024-02-15T02:04:07;99331.31;;;5.13;56.46
78309;BME280;75657;42.022;21.356;2024-02-15T02:06:33;99327.06;;;5.11;56.49
78309;BME280;75657;42.022;21.356;2024-02-15T02:08:58;99330.38;;;5.02;56.81
78309;BME280;75657;42.022;21.356;2024-02-15T02:11:24;99339.03;;;4.97;57.13
78309;BME280;75657;42.022;21.356;2024-02-15T02:13:50;99328.66;;;4.90;57.44
78309;BME280;75657;42.022;21.356;2024-02-15T02:16:29;99333.44;;;4.94;56.71
78309;BME280;75657;42.022;21.356;2024-02-15T02:18:57;99327.69;;;4.97;57.07
78309;BME280;75657;42.022;21.356;2024-02-15T02:21:29;99327.84;;;4.90;57.47
78309;BME280;75657;42.022;21.356;2024-02-15T02:23:58;99331.78;;;4.87;57.04
78309;BME280;75657;42.022;21.356;2024-02-15T02:26:24;99343.63;;;4.85;57.11
78309;BME280;75657;42.022;21.356;2024-02-15T02:28:50;99333.63;;;4.87;57.50
78309;BME280;75657;42.022;21.356;2024-02-15T02:31:19;99339.19;;;4.90;56.70
78309;BME280;75657;42.022;21.356;2024-02-15T02:33:51;99341.34;;;4.94;56.89
78309;BME280;75657;42.022;21.356;2024-02-15T02:36:20;99337.13;;;4.92;57.35
78309;BME280;75657;42.022;21.356;2024-02-15T02:38:46;99345.53;;;4.89;57.07
78309;BME280;75657;42.022;21.356;2024-02-15T02:41:15;99342.91;;;4.89;57.44
78309;BME280;75657;42.022;21.356;2024-02-15T02:43:41;99347.88;;;4.86;57.79
78309;BME280;75657;42.022;21.356;2024-02-15T02:46:10;99348.09;;;4.84;57.56
78309;BME280;75657;42.022;21.356;2024-02-15T02:48:36;99352.56;;;4.84;57.91
78309;BME280;75657;42.022;21.356;2024-02-15T02:51:02;99357.84;;;4.84;57.69
78309;BME280;75657;42.022;21.356;2024-02-15T02:53:28;99355.78;;;4.86;57.30
78309;BME280;75657;42.022;21.356;2024-02-15T02:55:54;99360.47;;;4.84;57.95
78309;BME280;75657;42.022;21.356;2024-02-15T02:58:21;99358.44;;;4.86;57.87
78309;BME280;75657;42.022;21.356;2024-02-15T03:00:48;99362.16;;;4.90;57.10
78309;BME280;75657;42.022;21.356;2024-02-15T03:03:15;99361.38;;;4.89;57.05
78309;BME280;75657;42.022;21.356;2024-02-15T03:05:40;99357.13;;;4.88;57.06
78309;BME280;75657;42.022;21.356;2024-02-15T03:08:08;99359.28;;;4.91;57.48
78309;BME280;75657;42.022;21.356;2024-02-15T03:10:34;99363.03;;;4.96;57.09
78309;BME280;75657;42.022;21.356;2024-02-15T03:12:59;99356.66;;;4.91;57.30
78309;BME280;75657;42.022;21.356;2024-02-15T03:15:25;99354.78;;;4.92;56.97
78309;BME280;75657;42.022;21.356;2024-02-15T03:17:50;99352.63;;;4.89;57.76
78309;BME280;75657;42.022;21.356;2024-02-15T03:20:16;99351.28;;;4.86;57.66
78309;BME280;75657;42.022;21.356;2024-02-15T03:22:58;99359.13;;;4.81;57.73
78309;BME280;75657;42.022;21.356;2024-02-15T03:25:25;99360.75;;;4.82;57.90
78309;BME280;75657;42.022;21.356;2024-02-15T03:27:51;99349.94;;;4.84;57.41
78309;BME280;75657;42.022;21.356;2024-02-15T03:32:53;99345.94;;;4.81;58.14
78309;BME280;75657;42.022;21.356;2024-02-15T03:35:20;99349.94;;;4.84;58.17
78309;BME280;75657;42.022;21.356;2024-02-15T03:37:47;99348.03;;;4.79;58.28
78309;BME280;75657;42.022;21.356;2024-02-15T03:40:16;99348.22;;;4.72;58.38
78309;BME280;75657;42.022;21.356;2024-02-15T03:42:42;99366.38;;;4.69;58.63
78309;BME280;75657;42.022;21.356;2024-02-15T03:45:08;99357.66;;;4.68;58.45
78309;BME280;75657;42.022;21.356;2024-02-15T03:47:34;99359.00;;;4.71;58.67
78309;BME280;75657;42.022;21.356;2024-02-15T03:50:05;99359.16;;;4.64;58.36
78309;BME280;75657;42.022;21.356;2024-02-15T03:52:31;99361.81;;;4.64;58.14
78309;BME280;75657;42.022;21.356;2024-02-15T03:54:57;99361.50;;;4.61;58.71
78309;BME280;75657;42.022;21.356;2024-02-15T03:57:24;99355.75;;;4.64;58.49
78309;BME280;75657;42.022;21.356;2024-02-15T03:59:49;99359.63;;;4.61;58.40
78309;BME280;75657;42.022;21.356;2024-02-15T04:02:18;99365.09;;;4.54;58.94
78309;BME280;75657;42.022;21.356;2024-02-15T04:04:44;99360.94;;;4.59;57.91
78309;BME280;75657;42.022;21.356;2024-02-15T04:07:13;99362.47;;;4.54;58.55
78309;BME280;75657;42.022;21.356;2024-02-15T04:09:39;99364.06;;;4.56;58.95
78309;BME280;75657;42.022;21.356;2024-02-15T04:12:05;99374.75;;;4.49;59.59
78309;BME280;75657;42.022;21.356;2024-02-15T04:14:33;99370.00;;;4.46;59.29
78309;BME280;75657;42.022;21.356;2024-02-15T04:16:59;99372.53;;;4.41;59.24
78309;BME280;75657;42.022;21.356;2024-02-15T04:19:25;99371.41;;;4.37;59.15
78309;BME280;75657;42.022;21.356;2024-02-15T04:21:51;99370.16;;;4.39;59.15
78309;BME280;75657;42.022;21.356;2024-02-15T04:24:16;99368.22;;;4.34;59.73
78309;BME280;75657;42.022;21.356;2024-02-15T04:26:42;99369.59;;;4.37;59.72
78309;BME280;75657;42.022;21.356;2024-02-15T04:29:08;99371.81;;;4.28;59.41
78309;BME280;75657;42.022;21.356;2024-02-15T04:31:37;99367.34;;;4.29;59.56
78309;BME280;75657;42.022;21.356;2024-02-15T04:34:04;99375.03;;;4.30;59.44
78309;BME280;75657;42.022;21.356;2024-02-15T04:36:30;99357.81;;;4.28;59.63
78309;BME280;75657;42.022;21.356;2024-02-15T04:38:59;99361.53;;;4.27;59.60
78309;BME280;75657;42.022;21.356;2024-02-15T04:41:25;99367.81;;;4.26;59.95
78309;BME280;75657;42.022;21.356;2024-02-15T04:43:50;99367.25;;;4.24;59.94
78309;BME280;75657;42.022;21.356;2024-02-15T04:46:17;99369.66;;;4.25;59.50
78309;BME280;75657;42.022;21.356;2024-02-15T04:48:42;99369.44;;;4.27;59.81
78309;BME280;75657;42.022;21.356;2024-02-15T04:51:09;99371.19;;;4.21;60.03
78309;BME280;75657;42.022;21.356;2024-02-15T04:53:36;99368.56;;;4.21;60.25
78309;BME280;75657;42.022;21.356;2024-02-15T04:56:04;99375.97;;;4.24;60.18
78309;BME280;75657;42.022;21.356;2024-02-15T04:58:35;99369.19;;;4.28;59.67
78309;BME280;75657;42.022;21.356;2024-02-15T05:01:02;99373.31;;;4.24;60.15
78309;BME280;75657;42.022;21.356;2024-02-15T05:03:31;99375.50;;;4.27;60.44
78309;BME280;75657;42.022;21.356;2024-02-15T05:06:00;99384.44;;;4.26;60.50
78309;BME280;75657;42.022;21.356;2024-02-15T05:08:25;99379.41;;;4.25;59.92
78309;BME280;75657;42.022;21.356;2024-02-15T05:10:51;99389.13;;;4.24;59.73
78309;BME280;75657;42.022;21.356;2024-02-15T05:13:21;99385.47;;;4.25;60.16
78309;BME280;75657;42.022;21.356;2024-02-15T05:15:48;99385.94;;;4.22;60.47
78309;BME280;75657;42.022;21.356;2024-02-15T05:18:13;99387.06;;;4.26;60.05
78309;BME280;75657;42.022;21.356;2024-02-15T05:20:38;99395.78;;;4.27;60.20
78309;BME280;75657;42.022;21.356;2024-02-15T05:23:06;99394.72;;;4.28;59.59
78309;BME280;75657;42.022;21.356;2024-02-15T05:25:31;99402.09;;;4.26;60.24
78309;BME280;75657;42.022;21.356;2024-02-15T05:27:58;99392.69;;;4.30;60.36
78309;BME280;75657;42.022;21.356;2024-02-15T05:30:24;99402.66;;;4.28;60.23
78309;BME280;75657;42.022;21.356;2024-02-15T05:32:50;99396.50;;;4.22;59.96
78309;BME280;75657;42.022;21.356;2024-02-15T05:35:18;99399.38;;;4.21;60.35
78309;BME280;75657;42.022;21.356;2024-02-15T05:37:43;99395.38;;;4.18;60.99
78309;BME280;75657;42.022;21.356;2024-02-15T05:40:09;99397.47;;;4.16;60.73
78309;BME280;75657;42.022;21.356;2024-02-15T05:42:42;99402.81;;;4.21;60.01
78309;BME280;75657;42.022;21.356;2024-02-15T05:47:54;99404.88;;;4.19;60.53
78309;BME280;75657;42.022;21.356;2024-02-15T05:50:19;99413.84;;;4.18;60.69
78309;BME280;75657;42.022;21.356;2024-02-15T05:52:47;99414.53;;;4.13;61.16
78309;BME280;75657;42.022;21.356;2024-02-15T05:55:12;99425.53;;;4.10;60.69
78309;BME280;75657;42.022;21.356;2024-02-15T05:57:45;99418.84;;;4.03;61.40
78309;BME280;75657;42.022;21.356;2024-02-15T06:00:11;99428.91;;;4.06;61.17
78309;BME280;75657;42.022;21.356;2024-02-15T06:02:36;99429.94;;;4.05;60.98
78309;BME280;75657;42.022;21.356;2024-02-15T06:05:03;99424.34;;;4.01;61.24
78309;BME280;75657;42.022;21.356;2024-02-15T06:07:30;99421.69;;;4.01;61.33
78309;BME280;75657;42.022;21.356;2024-02-15T06:09:59;99421.47;;;4.03;61.54
78309;BME280;75657;42.022;21.356;2024-02-15T06:12:28;99424.44;;;4.06;61.20
78309;BME280;75657;42.022;21.356;2024-02-15T06:14:54;99429.66;;;4.18;61.26
78309;BME280;75657;42.022;21.356;2024-02-15T06:17:19;99421.91;;;4.28;60.83
78309;BME280;75657;42.022;21.356;2024-02-15T06:19:45;99430.56;;;4.41;60.15
78309;BME280;75657;42.022;21.356;2024-02-15T06:22:11;99434.84;;;4.47;60.26
78309;BME280;75657;42.022;21.356;2024-02-15T06:24:37;99426.00;;;4.53;60.11
78309;BME280;75657;42.022;21.356;2024-02-15T06:27:03;99419.97;;;4.58;60.00
78309;BME280;75657;42.022;21.356;2024-02-15T06:29:29;99422.53;;;4.69;59.38
78309;BME280;75657;42.022;21.356;2024-02-15T06:32:13;99427.66;;;4.76;59.38
78309;BME280;75657;42.022;21.356;2024-02-15T06:34:57;99429.66;;;4.86;59.17
78309;BME280;75657;42.022;21.356;2024-02-15T06:37:41;99429.53;;;4.98;58.59
78309;BME280;75657;42.022;21.356;2024-02-15T06:40:25;99436.56;;;5.09;58.31
78309;BME280;75657;42.022;21.356;2024-02-15T06:42:51;99435.81;;;5.14;58.33
78309;BME280;75657;42.022;21.356;2024-02-15T06:45:16;99434.06;;;5.19;58.39
78309;BME280;75657;42.022;21.356;2024-02-15T06:47:43;99442.84;;;5.25;58.10
78309;BME280;75657;42.022;21.356;2024-02-15T06:50:15;99435.25;;;5.28;58.27
78309;BME280;75657;42.022;21.356;2024-02-15T06:52:42;99444.31;;;5.38;57.65
78309;BME280;75657;42.022;21.356;2024-02-15T06:55:08;99458.72;;;5.47;57.99
78309;BME280;75657;42.022;21.356;2024-02-15T06:57:37;99446.06;;;5.49;57.67
78309;BME280;75657;42.022;21.356;2024-02-15T07:00:06;99451.97;;;5.56;57.21
78309;BME280;75657;42.022;21.356;2024-02-15T07:02:39;99457.84;;;5.63;57.38
78309;BME280;75657;42.022;21.356;2024-02-15T07:05:05;99454.19;;;5.64;57.32
78309;BME280;75657;42.022;21.356;2024-02-15T07:07:31;99453.47;;;5.74;57.11
78309;BME280;75657;42.022;21.356;2024-02-15T07:09:57;99452.50;;;5.80;56.98
78309;BME280;75657;42.022;21.356;2024-02-15T07:12:23;99459.91;;;5.83;57.50
78309;BME280;75657;42.022;21.356;2024-02-15T07:14:48;99457.91;;;5.91;56.98
78309;BME280;75657;42.022;21.356;2024-02-15T07:17:14;99452.19;;;5.99;56.51
78309;BME280;75657;42.022;21.356;2024-02-15T07:19:46;99458.38;;;6.10;56.15
78309;BME280;75657;42.022;21.356;2024-02-15T07:22:15;99446.81;;;6.16;56.01
78309;BME280;75657;42.022;21.356;2024-02-15T07:24:40;99446.06;;;6.20;55.37
78309;BME280;75657;42.022;21.356;2024-02-15T07:27:05;99434.97;;;6.23;55.59
78309;BME280;75657;42.022;21.356;2024-02-15T07:29:31;99431.84;;;6.27;54.97
78309;BME280;75657;42.022;21.356;2024-02-15T07:32:00;99433.50;;;6.33;54.73
78309;BME280;75657;42.022;21.356;2024-02-15T07:34:29;99437.75;;;6.39;55.48
78309;BME280;75657;42.022;21.356;2024-02-15T07:36:55;99436.25;;;6.48;55.14
78309;BME280;75657;42.022;21.356;2024-02-15T07:39:21;99429.41;;;6.52;54.96
78309;BME280;75657;42.022;21.356;2024-02-15T07:41:51;99431.63;;;6.66;55.25
78309;BME280;75657;42.022;21.356;2024-02-15T07:44:17;99426.66;;;6.74;55.29
78309;BME280;75657;42.022;21.356;2024-02-15T07:46:43;99426.16;;;6.77;54.96
78309;BME280;75657;42.022;21.356;2024-02-15T07:49:08;99422.41;;;6.73;54.93
78309;BME280;75657;42.022;21.356;2024-02-15T07:51:34;99421.69;;;6.83;54.27
78309;BME280;75657;42.022;21.356;2024-02-15T07:54:00;99414.06;;;6.92;53.96
78309;BME280;75657;42.022;21.356;2024-02-15T07:56:26;99420.69;;;6.94;53.86
78309;BME280;75657;42.022;21.356;2024-02-15T07:58:52;99415.22;;;7.06;53.74
78309;BME280;75657;42.022;21.356;2024-02-15T08:01:18;99417.63;;;7.13;53.21
78309;BME280;75657;42.022;21.356;2024-02-15T08:03:46;99418.72;;;7.17;53.58
78309;BME280;75657;42.022;21.356;2024-02-15T08:06:16;99413.47;;;7.27;53.36
78309;BME280;75657;42.022;21.356;2024-02-15T08:08:43;99415.09;;;7.38;52.62
78309;BME280;75657;42.022;21.356;2024-02-15T08:11:14;99412.47;;;7.49;52.61
78309;BME280;75657;42.022;21.356;2024-02-15T08:16:10;99405.09;;;7.61;52.18
78309;BME280;75657;42.022;21.356;2024-02-15T08:18:38;99410.16;;;7.63;51.61
78309;BME280;75657;42.022;21.356;2024-02-15T08:21:04;99408.84;;;7.75;51.44
78309;BME280;75657;42.022;21.356;2024-02-15T08:23:30;99401.44;;;7.78;51.64
78309;BME280;75657;42.022;21.356;2024-02-15T08:25:55;99400.16;;;7.90;51.45
78309;BME280;75657;42.022;21.356;2024-02-15T08:28:23;99399.34;;;8.00;51.84
78309;BME280;75657;42.022;21.356;2024-02-15T08:30:48;99398.31;;;8.17;51.21
78309;BME280;75657;42.022;21.356;2024-02-15T08:33:13;99395.41;;;8.28;50.58
78309;BME280;75657;42.022;21.356;2024-02-15T08:35:40;99406.28;;;8.22;50.27
78309;BME280;75657;42.022;21.356;2024-02-15T08:38:06;99400.19;;;8.16;49.34
78309;BME280;75657;42.022;21.356;2024-02-15T08:40:32;99397.78;;;8.15;48.75
78309;BME280;75657;42.022;21.356;2024-02-15T08:42:58;99395.16;;;8.15;48.95
78309;BME280;75657;42.022;21.356;2024-02-15T08:45:23;99387.44;;;8.13;49.02
78309;BME280;75657;42.022;21.356;2024-02-15T08:47:49;99408.41;;;8.09;49.10
78309;BME280;75657;42.022;21.356;2024-02-15T08:50:18;99400.72;;;8.13;49.31
78309;BME280;75657;42.022;21.356;2024-02-15T08:52:44;99398.59;;;8.15;49.31
78309;BME280;75657;42.022;21.356;2024-02-15T08:55:10;99390.09;;;8.23;49.36
78309;BME280;75657;42.022;21.356;2024-02-15T08:57:40;99389.03;;;8.24;49.12
78309;BME280;75657;42.022;21.356;2024-02-15T09:00:07;99378.97;;;8.21;47.89
78309;BME280;75657;42.022;21.356;2024-02-15T09:02:48;99391.16;;;8.32;48.08
78309;BME280;75657;42.022;21.356;2024-02-15T09:05:18;99389.56;;;8.26;48.29
78309;BME280;75657;42.022;21.356;2024-02-15T09:07:44;99394.06;;;8.41;47.99
78309;BME280;75657;42.022;21.356;2024-02-15T09:10:13;99384.25;;;8.42;47.18
78309;BME280;75657;42.022;21.356;2024-02-15T09:12:40;99390.91;;;8.39;48.11
78309;BME280;75657;42.022;21.356;2024-02-15T09:15:07;99394.63;;;8.43;47.32
78309;BME280;75657;42.022;21.356;2024-02-15T09:17:33;99385.63;;;8.44;47.40
78309;BME280;75657;42.022;21.356;2024-02-15T09:20:06;99382.69;;;8.51;46.75
78309;BME280;75657;42.022;21.356;2024-02-15T09:22:33;99386.41;;;8.55;46.61
78309;BME280;75657;42.022;21.356;2024-02-15T09:24:58;99378.44;;;8.65;47.52
78309;BME280;75657;42.022;21.356;2024-02-15T09:27:24;99382.38;;;8.73;47.36
78309;BME280;75657;42.022;21.356;2024-02-15T09:29:49;99379.75;;;8.58;45.85
78309;BME280;75657;42.022;21.356;2024-02-15T09:32:14;99380.00;;;8.61;45.94
78309;BME280;75657;42.022;21.356;2024-02-15T09:34:40;99375.78;;;8.71;45.65
78309;BME280;75657;42.022;21.356;2024-02-15T09:37:07;99363.81;;;8.73;45.43
78309;BME280;75657;42.022;21.356;2024-02-15T09:39:32;99374.94;;;8.85;45.65
78309;BME280;75657;42.022;21.356;2024-02-15T09:42:07;99368.03;;;8.95;45.72
78309;BME280;75657;42.022;21.356;2024-02-15T09:44:38;99366.94;;;8.91;45.29
78309;BME280;75657;42.022;21.356;2024-02-15T09:47:06;99373.84;;;8.97;44.97
78309;BME280;75657;42.022;21.356;2024-02-15T09:49:38;99354.13;;;9.13;46.02
78309;BME280;75657;42.022;21.356;2024-02-15T09:52:08;99364.72;;;9.18;44.54
78309;BME280;75657;42.022;21.356;2024-02-15T09:54:40;99358.34;;;9.24;44.65
78309;BME280;75657;42.022;21.356;2024-02-15T09:57:09;99360.41;;;9.33;44.08
78309;BME280;75657;42.022;21.356;2024-02-15T09:59:36;99366.25;;;9.35;43.96
78309;BME280;75657;42.022;21.356;2024-02-15T10:02:02;99356.69;;;9.34;43.43
78309;BME280;75657;42.022;21.356;2024-02-15T10:04:28;99360.38;;;9.43;43.79
78309;BME280;75657;42.022;21.356;2024-02-15T10:06:54;99363.00;;;9.48;44.05
78309;BME280;75657;42.022;21.356;2024-02-15T10:09:30;99361.94;;;9.49;42.56
78309;BME280;75657;42.022;21.356;2024-02-15T10:12:00;99348.66;;;9.49;43.36
78309;BME280;75657;42.022;21.356;2024-02-15T10:14:29;99336.34;;;9.63;43.43
78309;BME280;75657;42.022;21.356;2024-02-15T10:16:55;99329.59;;;9.76;43.11
78309;BME280;75657;42.022;21.356;2024-02-15T10:19:21;99331.47;;;9.76;43.17
78309;BME280;75657;42.022;21.356;2024-02-15T10:22:05;99326.72;;;9.68;42.73
78309;BME280;75657;42.022;21.356;2024-02-15T10:24:31;99321.66;;;9.71;43.19
78309;BME280;75657;42.022;21.356;2024-02-15T10:27:08;99324.03;;;9.73;42.88
78309;BME280;75657;42.022;21.356;2024-02-15T10:29:38;99308.28;;;9.81;42.40
78309;BME280;75657;42.022;21.356;2024-02-15T10:32:05;99319.19;;;9.80;42.97
78309;BME280;75657;42.022;21.356;2024-02-15T10:34:43;99297.66;;;9.81;43.17
78309;BME280;75657;42.022;21.356;2024-02-15T10:39:36;99303.63;;;9.97;43.15
78309;BME280;75657;42.022;21.356;2024-02-15T10:42:03;99289.59;;;9.92;42.29
78309;BME280;75657;42.022;21.356;2024-02-15T10:44:31;99281.06;;;9.95;42.46
78309;BME280;75657;42.022;21.356;2024-02-15T10:46:59;99279.19;;;9.95;42.33
78309;BME280;75657;42.022;21.356;2024-02-15T10:49:26;99277.22;;;10.06;43.12
78309;BME280;75657;42.022;21.356;2024-02-15T10:51:56;99301.13;;;10.11;42.39
78309;BME280;75657;42.022;21.356;2024-02-15T10:54:43;99271.91;;;10.06;42.86
78309;BME280;75657;42.022;21.356;2024-02-15T10:57:15;99270.00;;;10.12;42.53
78309;BME280;75657;42.022;21.356;2024-02-15T11:00:04;99271.63;;;10.08;42.48
78309;BME280;75657;42.022;21.356;2024-02-15T11:03:02;99267.59;;;10.15;42.18
78309;BME280;75657;42.022;21.356;2024-02-15T11:05:33;99259.84;;;10.19;42.98
78309;BME280;75657;42.022;21.356;2024-02-15T11:08:07;99261.63;;;10.24;42.23
78309;BME280;75657;42.022;21.356;2024-02-15T11:10:37;99259.72;;;10.29;42.36
78309;BME280;75657;42.022;21.356;2024-02-15T11:13:04;99248.66;;;10.46;42.71
78309;BME280;75657;42.022;21.356;2024-02-15T11:18:02;99250.19;;;10.52;42.26
78309;BME280;75657;42.022;21.356;2024-02-15T11:22:58;99236.72;;;10.68;41.84
78309;BME280;75657;42.022;21.356;2024-02-15T11:25:34;99228.94;;;10.71;41.23
78309;BME280;75657;42.022;21.356;2024-02-15T11:30:44;99227.00;;;10.77;41.54
78309;BME280;75657;42.022;21.356;2024-02-15T11:33:33;99220.28;;;10.80;41.12
78309;BME280;75657;42.022;21.356;2024-02-15T11:36:05;99225.13;;;10.77;41.35
78309;BME280;75657;42.022;21.356;2024-02-15T11:38:31;99218.06;;;10.87;40.94
78309;BME280;75657;42.022;21.356;2024-02-15T11:46:18;99217.31;;;11.05;40.64
78309;BME280;75657;42.022;21.356;2024-02-15T11:48:47;99208.81;;;11.03;40.91
78309;BME280;75657;42.022;21.356;2024-02-15T11:54:09;99207.34;;;11.11;40.40
78309;BME280;75657;42.022;21.356;2024-02-15T11:59:09;99194.25;;;11.14;40.00
78309;BME280;75657;42.022;21.356;2024-02-15T12:01:44;99195.75;;;11.21;40.13
78309;BME280;75657;42.022;21.356;2024-02-15T12:04:28;99185.75;;;11.12;39.96
78309;BME280;75657;42.022;21.356;2024-02-15T12:07:14;99175.16;;;11.26;40.09
78309;BME280;75657;42.022;21.356;2024-02-15T12:09:59;99169.38;;;11.38;39.92
78309;BME280;75657;42.022;21.356;2024-02-15T12:12:53;99174.25;;;11.50;39.97
78309;BME280;75657;42.022;21.356;2024-02-15T12:15:38;99171.06;;;11.34;39.87
78309;BME280;75657;42.022;21.356;2024-02-15T12:18:22;99172.91;;;11.33;40.40
78309;BME280;75657;42.022;21.356;2024-02-15T12:21:06;99168.19;;;11.44;40.01
78309;BME280;75657;42.022;21.356;2024-02-15T12:23:35;99163.50;;;11.55;39.89
78309;BME280;75657;42.022;21.356;2024-02-15T12:26:01;99168.44;;;11.62;39.96
78309;BME280;75657;42.022;21.356;2024-02-15T12:28:29;99164.69;;;11.63;39.04
78309;BME280;75657;42.022;21.356;2024-02-15T12:30:55;99164.91;;;11.66;40.02
78309;BME280;75657;42.022;21.356;2024-02-15T12:33:24;99152.34;;;11.67;39.75
78309;BME280;75657;42.022;21.356;2024-02-15T12:35:49;99150.78;;;11.66;39.48
78309;BME280;75657;42.022;21.356;2024-02-15T12:38:16;99152.88;;;11.69;38.62
78309;BME280;75657;42.022;21.356;2024-02-15T12:40:42;99145.94;;;11.68;39.75
78309;BME280;75657;42.022;21.356;2024-02-15T12:43:10;99155.03;;;11.81;38.94
78309;BME280;75657;42.022;21.356;2024-02-15T12:45:36;99133.13;;;11.84;38.88
78309;BME280;75657;42.022;21.356;2024-02-15T12:48:07;99137.09;;;11.86;38.87
78309;BME280;75657;42.022;21.356;2024-02-15T12:50:33;99134.09;;;11.88;38.65
78309;BME280;75657;42.022;21.356;2024-02-15T12:53:00;99134.91;;;11.88;38.66
78309;BME280;75657;42.022;21.356;2024-02-15T12:55:31;99134.91;;;11.88;38.37
78309;BME280;75657;42.022;21.356;2024-02-15T12:58:00;99129.16;;;11.81;39.07
78309;BME280;75657;42.022;21.356;2024-02-15T13:00:29;99134.72;;;11.85;38.26
78309;BME280;75657;42.022;21.356;2024-02-15T13:02:59;99137.50;;;11.94;38.63
78309;BME280;75657;42.022;21.356;2024-02-15T13:05:28;99127.63;;;11.94;38.42
78309;BME280;75657;42.022;21.356;2024-02-15T13:07:55;99125.34;;;12.01;38.71
78309;BME280;75657;42.022;21.356;2024-02-15T13:10:22;99120.09;;;12.10;38.79
78309;BME280;75657;42.022;21.356;2024-02-15T13:12:48;99118.31;;;12.19;38.27
78309;BME280;75657;42.022;21.356;2024-02-15T13:15:16;99116.47;;;12.06;37.13
78309;BME280;75657;42.022;21.356;2024-02-15T13:17:49;99117.25;;;12.06;37.80
78309;BME280;75657;42.022;21.356;2024-02-15T13:20:22;99108.06;;;12.13;38.48
78309;BME280;75657;42.022;21.356;2024-02-15T13:23:04;99107.63;;;12.19;37.48
78309;BME280;75657;42.022;21.356;2024-02-15T13:25:36;99107.13;;;12.31;38.46
78309;BME280;75657;42.022;21.356;2024-02-15T13:28:03;99109.03;;;12.31;37.25
78309;BME280;75657;42.022;21.356;2024-02-15T13:30:29;99104.38;;;12.22;37.81
78309;BME280;75657;42.022;21.356;2024-02-15T13:32:55;99098.03;;;12.32;37.60